Terminal Aerodrome Forecast
Issued by NWS Louisville, KY

Home | Current Version | Previous Version | Graphics & Text | Print | Product List | Glossary On
Versions: 1 2 3 4 5 6 7 8 9 10 11 12 13 14 15 16 17 18 19 20 21 22
000
FTUS43 KLMK 161720
TAFBWG
TAF
KBWG 161720Z 1618/1718 21005KT P6SM VCTS BKN025CB BKN040
     FM162000 21006KT P6SM BKN035
     FM170000 20004KT 6SM HZ BKN250
      TEMPO 1708/1712 4SM BR
     FM171200 22005KT P6SM BKN050=

USA.gov is the U.S. government's official web portal to all federal, state and local government web resources and services.